createdAt,value
2019-05-19T04:43:23.948Z,7.00
2019-05-19T04:45:53.259Z,6.73
2019-05-19T04:48:22.435Z,6.30
2019-05-19T04:50:51.834Z,6.67
2019-05-19T04:53:21.029Z,6.53
2019-05-19T04:55:50.277Z,6.83
2019-05-19T04:58:19.500Z,7.13
2019-05-19T05:00:48.792Z,8.50
2019-05-19T05:03:19.353Z,8.57
2019-05-19T05:05:48.621Z,8.30
2019-05-19T05:08:29.489Z,6.87
2019-05-19T05:10:48.895Z,7.50
2019-05-19T05:13:18.057Z,7.27
2019-05-19T05:15:47.305Z,7.43
2019-05-19T05:18:16.583Z,9.23
2019-05-19T05:20:45.802Z,8.93
2019-05-19T05:23:15.075Z,9.03
2019-05-19T05:25:44.360Z,9.10
2019-05-19T05:28:13.640Z,9.07
2019-05-19T05:30:42.918Z,9.70
2019-05-19T05:33:12.109Z,11.10
2019-05-19T05:35:41.286Z,10.00
2019-05-19T05:38:10.522Z,11.00
2019-05-19T05:40:39.720Z,13.40
2019-05-19T05:43:08.939Z,10.03
2019-05-19T05:45:38.892Z,9.80
2019-05-19T05:48:08.106Z,10.00
2019-05-19T05:50:37.343Z,10.30
2019-05-19T05:53:06.636Z,9.00
2019-05-19T05:55:35.856Z,7.80
2019-05-19T05:58:05.168Z,8.53
2019-05-19T06:00:34.448Z,7.67
2019-05-19T06:03:03.717Z,7.20
2019-05-19T06:05:32.893Z,7.10
2019-05-19T06:08:02.163Z,7.43
2019-05-19T06:10:31.375Z,6.87
2019-05-19T06:13:00.559Z,7.47
2019-05-19T06:15:29.841Z,7.30
2019-05-19T06:17:59.107Z,7.07
2019-05-19T06:20:28.346Z,7.53
2019-05-19T06:22:57.618Z,7.43
2019-05-19T06:25:27.026Z,7.00
2019-05-19T06:27:56.441Z,6.93
2019-05-19T06:30:25.719Z,7.17
2019-05-19T06:32:56.163Z,6.33
2019-05-19T06:35:25.450Z,7.23
2019-05-19T06:37:54.693Z,6.97
2019-05-19T06:40:24.044Z,7.17
2019-05-19T06:42:53.238Z,6.80
2019-05-19T06:45:22.889Z,8.57
2019-05-19T06:47:52.518Z,6.97
2019-05-19T06:50:21.765Z,6.63
2019-05-19T06:52:51.036Z,7.07
2019-05-19T06:55:20.309Z,6.83
2019-05-19T06:57:49.576Z,7.00
2019-05-19T07:00:20.280Z,7.10
2019-05-19T07:02:49.511Z,7.10
2019-05-19T07:05:19.567Z,7.53
2019-05-19T07:07:48.825Z,7.50
2019-05-19T07:10:18.319Z,6.80
2019-05-19T07:12:47.559Z,7.53
2019-05-19T07:15:17.588Z,7.58
2019-05-19T07:17:46.979Z,6.97
2019-05-19T07:20:17.803Z,6.80
2019-05-19T07:22:47.024Z,7.50
2019-05-19T07:25:16.395Z,7.20
2019-05-19T07:27:45.654Z,7.90
2019-05-19T07:30:15.635Z,6.60
2019-05-19T07:32:44.837Z,6.80
2019-05-19T07:35:14.409Z,7.60
2019-05-19T07:37:43.621Z,7.08
2019-05-19T07:40:13.109Z,7.45
2019-05-19T07:42:42.282Z,7.33
2019-05-19T07:45:12.006Z,8.48
2019-05-19T07:47:41.488Z,8.00
2019-05-19T07:50:10.682Z,7.53
2019-05-19T07:52:39.955Z,8.53
2019-05-19T07:55:09.466Z,7.10
2019-05-19T07:57:38.847Z,8.00
2019-05-19T08:00:08.741Z,8.05
2019-05-19T08:02:38.636Z,8.25
2019-05-19T08:05:08.917Z,8.40
2019-05-19T08:07:38.302Z,8.63
2019-05-19T08:10:08.100Z,8.25
2019-05-19T08:12:37.409Z,7.83
2019-05-19T08:15:07.623Z,8.05
2019-05-19T08:17:36.800Z,10.68
2019-05-19T08:20:06.758Z,8.98
2019-05-19T08:22:35.939Z,8.18
2019-05-19T08:25:05.606Z,7.60
2019-05-19T08:27:34.846Z,7.80
2019-05-19T08:30:05.212Z,7.87
2019-05-19T08:32:35.110Z,8.78
2019-05-19T08:35:04.856Z,7.90
2019-05-19T08:37:34.047Z,8.90
2019-05-19T08:40:03.380Z,8.53
2019-05-19T08:42:32.570Z,9.75
2019-05-19T08:45:01.831Z,8.95
2019-05-19T08:47:31.271Z,8.83
2019-05-19T08:50:00.570Z,10.05
2019-05-19T08:52:29.824Z,9.55
2019-05-19T08:54:59.018Z,8.95
2019-05-19T08:57:28.256Z,8.73
2019-05-19T08:59:57.599Z,9.60
2019-05-19T09:02:26.860Z,8.80
2019-05-19T09:04:56.150Z,8.83
2019-05-19T09:07:25.438Z,8.43
2019-05-19T09:09:54.655Z,8.78
2019-05-19T09:12:23.922Z,9.58
2019-05-19T09:14:53.165Z,8.85
2019-05-19T09:17:22.408Z,8.68
2019-05-19T09:19:54.349Z,9.40
2019-05-19T09:22:24.001Z,10.75
2019-05-19T09:24:54.503Z,9.75
2019-05-19T09:27:23.742Z,9.20
2019-05-19T09:29:53.672Z,9.20
2019-05-19T09:32:22.952Z,8.78
2019-05-19T09:34:52.209Z,8.95
2019-05-19T09:37:21.385Z,8.30
2019-05-19T09:39:50.623Z,8.55
2019-05-19T09:42:19.796Z,8.05
2019-05-19T09:44:49.281Z,7.83
2019-05-19T09:47:19.006Z,8.60
2019-05-19T09:49:48.267Z,8.00
2019-05-19T09:52:17.539Z,7.87
2019-05-19T09:54:46.726Z,7.75
2019-05-19T09:57:15.928Z,7.00
2019-05-19T09:59:45.403Z,7.37
2019-05-19T10:02:14.623Z,7.50
2019-05-19T10:04:44.580Z,7.47
2019-05-19T10:07:13.920Z,6.67
2019-05-19T10:10:03.519Z,6.72
2019-05-19T10:12:32.867Z,6.78
2019-05-19T10:15:04.763Z,5.83
2019-05-19T10:17:34.022Z,5.72
2019-05-19T10:20:03.643Z,5.62
2019-05-19T10:22:33.224Z,5.42
2019-05-19T10:25:20.380Z,5.80
2019-05-19T10:27:34.583Z,6.87
2019-05-19T10:30:04.208Z,6.00
2019-05-19T10:32:33.395Z,7.08
2019-05-19T10:35:03.238Z,7.97
2019-05-19T10:37:34.432Z,8.00
2019-05-19T10:40:03.467Z,10.70
2019-05-19T10:42:32.716Z,9.68
2019-05-19T10:45:02.081Z,10.80
2019-05-19T10:47:31.327Z,10.13
2019-05-19T10:50:00.655Z,10.20
2019-05-19T10:52:29.845Z,8.90
2019-05-19T10:54:59.047Z,9.97
2019-05-19T10:57:28.363Z,12.07
2019-05-19T10:59:57.662Z,10.63
2019-05-19T11:02:26.913Z,10.67
2019-05-19T11:04:56.174Z,10.10
2019-05-19T11:07:25.336Z,9.47
2019-05-19T11:09:54.595Z,7.70
2019-05-19T11:12:23.870Z,8.00
2019-05-19T11:14:53.186Z,8.80
2019-05-19T11:17:22.522Z,8.40
2019-05-19T11:19:51.809Z,8.60
2019-05-19T11:22:21.074Z,8.63
2019-05-19T11:24:50.560Z,8.87
2019-05-19T11:27:19.902Z,8.37
2019-05-19T11:29:49.298Z,8.97
2019-05-19T11:32:20.832Z,7.13
2019-05-19T11:34:50.028Z,6.10
2019-05-19T11:37:19.383Z,5.33
2019-05-19T11:39:48.633Z,6.10
2019-05-19T11:42:17.945Z,6.63
2019-05-19T11:44:47.170Z,5.27
2019-05-19T11:47:16.445Z,5.00
2019-05-19T11:49:45.780Z,4.80
2019-05-19T11:52:15.020Z,5.43
2019-05-19T11:54:44.314Z,6.90
2019-05-19T11:57:13.533Z,6.50
2019-05-19T11:59:42.702Z,6.10
2019-05-19T12:02:12.012Z,7.37
2019-05-19T12:04:41.189Z,6.20
2019-05-19T12:07:10.488Z,5.77
2019-05-19T12:09:39.754Z,6.17
2019-05-19T12:12:11.108Z,6.17
2019-05-19T12:14:40.611Z,7.23
2019-05-19T12:17:09.919Z,7.53
2019-05-19T12:19:39.329Z,7.63
2019-05-19T12:22:08.622Z,7.27
2019-05-19T12:24:38.092Z,8.07
2019-05-19T12:27:07.740Z,6.77
2019-05-19T12:29:37.022Z,6.27
2019-05-19T12:32:06.289Z,7.07
2019-05-19T12:34:35.620Z,5.50
2019-05-19T12:37:05.270Z,5.80
2019-05-19T12:39:34.544Z,6.27
2019-05-19T12:42:03.844Z,5.67
2019-05-19T12:44:33.105Z,5.23
2019-05-19T12:47:02.409Z,5.03
2019-05-19T12:49:31.647Z,5.53
2019-05-19T12:52:00.900Z,7.70
2019-05-19T12:54:30.348Z,7.50
2019-05-19T12:56:59.755Z,6.93
2019-05-19T12:59:29.150Z,5.97
2019-05-19T13:01:58.429Z,5.53
2019-05-19T13:04:28.036Z,3.23
2019-05-19T13:06:57.301Z,2.60
2019-05-19T13:09:26.619Z,2.27
2019-05-19T13:11:55.852Z,2.67
2019-05-19T13:14:25.119Z,4.17
2019-05-19T13:16:54.316Z,3.70
2019-05-19T13:19:23.709Z,2.63
2019-05-19T13:21:53.008Z,4.33
2019-05-19T13:24:24.985Z,2.70
2019-05-19T13:26:56.850Z,2.60
2019-05-19T13:29:25.942Z,4.50
2019-05-19T13:31:55.558Z,3.37
2019-05-19T13:34:24.742Z,4.40
2019-05-19T13:36:53.928Z,4.37
2019-05-19T13:39:23.256Z,6.73
2019-05-19T13:41:52.574Z,3.90
2019-05-19T13:44:21.831Z,3.73
2019-05-19T13:46:51.114Z,2.83
2019-05-19T13:49:20.442Z,3.13
2019-05-19T13:51:49.640Z,3.20
2019-05-19T13:54:18.854Z,3.03
2019-05-19T13:56:48.238Z,2.90
2019-05-19T13:59:17.504Z,2.80
2019-05-19T14:01:47.001Z,3.00
2019-05-19T14:04:18.691Z,3.30
2019-05-19T14:06:48.086Z,4.90
2019-05-19T14:09:17.276Z,3.40
2019-05-19T14:11:46.586Z,3.10
2019-05-19T14:14:19.039Z,4.07
2019-05-19T14:16:48.303Z,3.93
2019-05-19T14:19:17.591Z,4.30
2019-05-19T14:21:46.824Z,4.43
2019-05-19T14:24:16.096Z,4.00
2019-05-19T14:26:45.355Z,3.87
2019-05-19T14:29:14.648Z,3.67
2019-05-19T14:31:44.174Z,3.30
2019-05-19T14:34:13.352Z,3.47
2019-05-19T14:36:44.386Z,4.27
2019-05-19T14:39:13.590Z,3.40
2019-05-19T14:41:47.724Z,4.37
2019-05-19T14:44:17.510Z,3.80
2019-05-19T14:46:46.902Z,2.60
2019-05-19T14:49:16.228Z,5.00
2019-05-19T14:51:45.487Z,4.00
2019-05-19T14:54:15.024Z,3.77
2019-05-19T14:56:44.241Z,3.43
2019-05-19T14:59:13.524Z,2.90
2019-05-19T15:01:42.721Z,4.47
2019-05-19T15:04:12.155Z,4.00
2019-05-19T15:06:41.532Z,4.77
2019-05-19T15:09:10.740Z,3.30
2019-05-19T15:11:40.090Z,3.50
2019-05-19T15:14:09.547Z,3.33
2019-05-19T15:16:38.762Z,4.10
2019-05-19T15:19:08.376Z,6.10
2019-05-19T15:21:37.876Z,3.20
2019-05-19T15:24:07.567Z,4.23
2019-05-19T15:26:38.319Z,5.13
2019-05-19T15:29:07.607Z,5.10
2019-05-19T15:31:37.249Z,4.70
2019-05-19T15:34:06.518Z,5.60
2019-05-19T15:36:43.347Z,4.90
2019-05-19T15:39:14.555Z,3.67
2019-05-19T15:41:43.674Z,4.87
2019-05-19T15:44:12.908Z,4.70
2019-05-19T15:46:42.251Z,6.23
2019-05-19T15:49:11.482Z,4.97
2019-05-19T15:51:55.746Z,4.30
2019-05-19T15:54:11.846Z,4.33
2019-05-19T15:56:41.335Z,4.10
2019-05-19T15:59:10.672Z,6.67
2019-05-19T16:01:39.957Z,6.20
2019-05-19T16:04:09.221Z,11.13
2019-05-19T16:06:39.221Z,5.83
2019-05-19T16:09:08.794Z,6.60
2019-05-19T16:11:38.082Z,4.90
2019-05-19T16:14:07.445Z,6.13
2019-05-19T16:16:36.687Z,7.07
2019-05-19T16:19:05.954Z,4.93
2019-05-19T16:21:35.465Z,4.13
2019-05-19T16:24:04.970Z,4.17
2019-05-19T16:26:34.150Z,4.13
2019-05-19T16:29:03.653Z,4.87
2019-05-19T16:31:32.978Z,8.00
2019-05-19T16:34:02.336Z,7.67
2019-05-19T16:36:31.688Z,7.10
2019-05-19T16:39:00.968Z,5.03
2019-05-19T16:41:30.365Z,4.27
2019-05-19T16:43:59.634Z,6.67
2019-05-19T16:46:28.937Z,5.83
2019-05-19T16:48:58.139Z,4.57
2019-05-19T16:51:28.204Z,5.63
2019-05-19T16:54:03.211Z,9.93
2019-05-19T16:56:33.612Z,6.23
2019-05-19T16:59:03.098Z,8.47
2019-05-19T17:01:32.427Z,7.03
2019-05-19T17:04:01.792Z,8.80
2019-05-19T17:06:31.458Z,10.20
2019-05-19T17:09:00.654Z,9.97
2019-05-19T17:11:30.204Z,8.40
2019-05-19T17:13:59.576Z,6.93
2019-05-19T17:16:28.941Z,9.67
2019-05-19T17:18:58.333Z,8.60
2019-05-19T17:21:27.524Z,8.47
2019-05-19T17:23:56.804Z,8.90
2019-05-19T17:26:26.092Z,8.00
2019-05-19T17:29:00.520Z,8.20
2019-05-19T17:31:26.447Z,10.80
2019-05-19T17:33:56.107Z,8.90
2019-05-19T17:36:27.474Z,9.20
2019-05-19T17:39:03.570Z,9.50
2019-05-19T17:41:32.913Z,7.50
2019-05-19T17:44:02.210Z,8.33
2019-05-19T17:46:33.112Z,7.83
2019-05-19T17:49:03.201Z,9.77
2019-05-19T17:51:32.570Z,6.83
2019-05-19T17:54:01.875Z,8.20
2019-05-19T17:56:32.277Z,8.07
2019-05-19T17:59:15.786Z,7.77
2019-05-19T18:01:35.627Z,8.53
2019-05-19T18:04:05.671Z,7.33
2019-05-19T18:06:35.416Z,7.57
2019-05-19T18:09:06.130Z,7.30
2019-05-19T18:11:36.089Z,7.33
2019-05-19T18:14:05.605Z,6.83
2019-05-19T18:16:34.957Z,6.40
2019-05-19T18:19:04.296Z,7.17
2019-05-19T18:21:33.620Z,8.47
2019-05-19T18:24:02.947Z,9.03
2019-05-19T18:26:32.418Z,7.93
2019-05-19T18:29:02.078Z,7.93
2019-05-19T18:31:31.455Z,6.40
2019-05-19T18:34:01.326Z,3.90
2019-05-19T18:36:30.584Z,2.93
2019-05-19T18:39:00.226Z,2.90
2019-05-19T18:41:29.449Z,1.63
2019-05-19T18:43:58.830Z,1.73
2019-05-19T18:46:29.886Z,4.17
2019-05-19T18:48:59.249Z,1.63
2019-05-19T18:51:29.141Z,3.47
2019-05-19T18:53:58.708Z,6.23
2019-05-19T18:56:27.950Z,2.43
2019-05-19T18:58:57.156Z,3.20
2019-05-19T19:01:26.642Z,2.37
2019-05-19T19:03:56.536Z,2.17
2019-05-19T19:06:29.391Z,4.53
2019-05-19T19:08:58.834Z,3.13
2019-05-19T19:11:28.937Z,2.70
2019-05-19T19:13:58.294Z,1.80
2019-05-19T19:16:27.941Z,1.90
2019-05-19T19:18:57.453Z,2.17
2019-05-19T19:21:29.488Z,2.00
2019-05-19T19:23:58.778Z,3.27
2019-05-19T19:26:28.258Z,1.80
2019-05-19T19:28:58.311Z,1.83
2019-05-19T19:31:27.899Z,4.23
2019-05-19T19:33:57.860Z,2.57
2019-05-19T19:36:27.217Z,2.33
2019-05-19T19:38:56.497Z,2.90
2019-05-19T19:41:25.936Z,1.90
2019-05-19T19:43:55.466Z,2.97
2019-05-19T19:46:25.451Z,2.13
2019-05-19T19:48:54.858Z,2.43
2019-05-19T19:51:24.327Z,2.30
2019-05-19T19:53:53.680Z,3.73
2019-05-19T19:56:23.333Z,2.53
2019-05-19T19:58:52.606Z,2.30
2019-05-19T20:01:21.872Z,2.57
2019-05-19T20:03:51.348Z,2.60
2019-05-19T20:06:20.628Z,2.20
2019-05-19T20:08:50.993Z,2.40
2019-05-19T20:11:21.568Z,2.93
2019-05-19T20:13:53.694Z,2.13
2019-05-19T20:16:23.186Z,2.23
2019-05-19T20:18:52.605Z,2.07
2019-05-19T20:21:21.997Z,7.40
2019-05-19T20:23:51.631Z,3.53
2019-05-19T20:26:21.015Z,4.27
2019-05-19T20:28:50.607Z,3.63
2019-05-19T20:31:20.921Z,4.37
2019-05-19T20:33:50.322Z,4.60
2019-05-19T20:36:19.607Z,4.00
2019-05-19T20:38:48.895Z,3.47
2019-05-19T20:41:18.150Z,4.87
2019-05-19T20:43:47.387Z,4.10
2019-05-19T20:46:16.768Z,2.47
2019-05-19T20:48:46.113Z,3.73
2019-05-19T20:51:15.476Z,3.33
2019-05-19T20:53:44.642Z,3.67
2019-05-19T20:56:17.271Z,3.57
2019-05-19T20:58:46.450Z,2.93
2019-05-19T21:01:18.743Z,3.97
2019-05-19T21:03:47.965Z,3.37
2019-05-19T21:06:17.143Z,4.27
2019-05-19T21:08:46.427Z,3.40
2019-05-19T21:11:16.016Z,4.83
2019-05-19T21:13:45.282Z,3.43
2019-05-19T21:16:14.526Z,3.90
2019-05-19T21:18:43.808Z,4.83
2019-05-19T21:21:13.271Z,5.53
2019-05-19T21:23:42.832Z,5.77
2019-05-19T21:26:12.075Z,5.90
2019-05-19T21:28:41.299Z,6.13
2019-05-19T21:31:10.474Z,7.67
2019-05-19T21:33:39.777Z,7.37
2019-05-19T21:36:09.039Z,7.93
2019-05-19T21:38:40.491Z,7.37
2019-05-19T21:41:10.880Z,9.60
2019-05-19T21:43:40.115Z,8.00
2019-05-19T21:46:09.955Z,7.90
2019-05-19T21:48:39.367Z,9.20
2019-05-19T21:51:08.589Z,8.13
2019-05-19T21:53:40.182Z,8.27
2019-05-19T21:56:09.433Z,8.93
2019-05-19T21:58:38.676Z,8.47
